sensor_id;sensor_type;location;lat;lon;timestamp;pressure;altitude;pressure_sealevel;temperature;humidity
66176;BME280;52977;44.816;20.538;2023-03-23T00:01:21;99636.50;;;14.38;53.62
66176;BME280;52977;44.816;20.538;2023-03-23T00:03:51;99662.50;;;14.57;53.85
66176;BME280;52977;44.816;20.538;2023-03-23T00:06:19;99682.97;;;14.72;53.47
66176;BME280;52977;44.816;20.538;2023-03-23T00:08:49;99670.88;;;14.60;53.71
66176;BME280;52977;44.816;20.538;2023-03-23T00:11:19;99680.81;;;14.65;53.61
66176;BME280;52977;44.816;20.538;2023-03-23T00:13:48;99616.00;;;14.19;53.53
66176;BME280;52977;44.816;20.538;2023-03-23T00:16:20;99661.06;;;14.47;53.95
66176;BME280;52977;44.816;20.538;2023-03-23T00:18:55;99670.28;;;14.67;53.43
66176;BME280;52977;44.816;20.538;2023-03-23T00:21:24;99665.59;;;14.67;53.93
66176;BME280;52977;44.816;20.538;2023-03-23T00:23:51;99673.47;;;14.69;53.45
66176;BME280;52977;44.816;20.538;2023-03-23T00:26:17;99672.22;;;14.66;53.74
66176;BME280;52977;44.816;20.538;2023-03-23T00:28:43;99674.41;;;14.61;53.14
66176;BME280;52977;44.816;20.538;2023-03-23T00:31:12;99670.06;;;14.60;53.29
66176;BME280;52977;44.816;20.538;2023-03-23T00:33:39;99667.81;;;14.49;53.80
66176;BME280;52977;44.816;20.538;2023-03-23T00:36:10;99572.72;;;13.88;53.65
66176;BME280;52977;44.816;20.538;2023-03-23T00:38:37;99621.47;;;14.19;53.69
66176;BME280;52977;44.816;20.538;2023-03-23T00:41:05;99664.78;;;14.39;54.33
66176;BME280;52977;44.816;20.538;2023-03-23T00:43:32;99675.72;;;13.98;55.97
66176;BME280;52977;44.816;20.538;2023-03-23T00:46:01;99668.50;;;13.07;58.95
66176;BME280;52977;44.816;20.538;2023-03-23T00:48:29;99618.78;;;12.71;59.00
66176;BME280;52977;44.816;20.538;2023-03-23T00:50:55;99659.16;;;13.20;58.48
66176;BME280;52977;44.816;20.538;2023-03-23T00:53:22;99653.44;;;13.25;58.59
66176;BME280;52977;44.816;20.538;2023-03-23T00:55:49;99636.31;;;13.16;59.06
66176;BME280;52977;44.816;20.538;2023-03-23T00:58:15;99653.69;;;13.45;58.54
66176;BME280;52977;44.816;20.538;2023-03-23T01:00:42;99653.94;;;13.40;58.58
66176;BME280;52977;44.816;20.538;2023-03-23T01:03:08;99650.03;;;13.28;59.13
66176;BME280;52977;44.816;20.538;2023-03-23T01:05:39;99622.56;;;12.91;59.36
66176;BME280;52977;44.816;20.538;2023-03-23T01:08:05;99662.50;;;12.46;61.25
66176;BME280;52977;44.816;20.538;2023-03-23T01:10:32;99654.03;;;12.18;62.68
66176;BME280;52977;44.816;20.538;2023-03-23T01:13:01;99621.56;;;11.87;63.23
66176;BME280;52977;44.816;20.538;2023-03-23T01:15:28;99648.94;;;12.08;63.76
66176;BME280;52977;44.816;20.538;2023-03-23T01:17:54;99645.28;;;12.25;63.43
66176;BME280;52977;44.816;20.538;2023-03-23T01:20:20;99610.47;;;12.46;62.41
66176;BME280;52977;44.816;20.538;2023-03-23T01:22:46;99658.69;;;12.72;62.30
66176;BME280;52977;44.816;20.538;2023-03-23T01:25:12;99658.28;;;12.82;62.12
66176;BME280;52977;44.816;20.538;2023-03-23T01:27:39;99651.63;;;12.71;62.60
66176;BME280;52977;44.816;20.538;2023-03-23T01:30:07;99651.84;;;12.66;63.20
66176;BME280;52977;44.816;20.538;2023-03-23T01:32:34;99658.50;;;12.77;63.00
66176;BME280;52977;44.816;20.538;2023-03-23T01:34:59;99634.22;;;12.55;63.43
66176;BME280;52977;44.816;20.538;2023-03-23T01:37:25;99656.53;;;12.78;63.44
66176;BME280;52977;44.816;20.538;2023-03-23T01:39:55;99647.91;;;12.88;62.95
66176;BME280;52977;44.816;20.538;2023-03-23T01:42:31;99650.09;;;13.07;62.17
66176;BME280;52977;44.816;20.538;2023-03-23T01:45:23;99654.25;;;13.26;61.74
66176;BME280;52977;44.816;20.538;2023-03-23T01:48:01;99660.44;;;13.35;61.00
66176;BME280;52977;44.816;20.538;2023-03-23T01:50:31;99649.00;;;13.33;60.68
66176;BME280;52977;44.816;20.538;2023-03-23T01:53:03;99657.69;;;13.35;60.45
66176;BME280;52977;44.816;20.538;2023-03-23T01:55:35;99660.56;;;13.39;60.71
66176;BME280;52977;44.816;20.538;2023-03-23T01:58:04;99650.25;;;13.23;60.54
66176;BME280;52977;44.816;20.538;2023-03-23T02:00:32;99644.88;;;13.14;60.35
66176;BME280;52977;44.816;20.538;2023-03-23T02:03:00;99657.22;;;13.33;60.03
66176;BME280;52977;44.816;20.538;2023-03-23T02:05:46;99662.53;;;13.38;59.92
66176;BME280;52977;44.816;20.538;2023-03-23T02:08:19;99662.19;;;13.40;59.64
66176;BME280;52977;44.816;20.538;2023-03-23T02:10:46;99610.59;;;13.08;59.93
66176;BME280;52977;44.816;20.538;2023-03-23T02:13:13;99660.22;;;13.40;60.19
66176;BME280;52977;44.816;20.538;2023-03-23T02:15:50;99661.50;;;13.43;59.54
66176;BME280;52977;44.816;20.538;2023-03-23T02:18:38;99664.19;;;13.30;60.03
66176;BME280;52977;44.816;20.538;2023-03-23T02:30:04;99664.75;;;13.24;60.72
66176;BME280;52977;44.816;20.538;2023-03-23T02:35:13;99671.72;;;13.33;60.01
66176;BME280;52977;44.816;20.538;2023-03-23T02:40:20;99644.72;;;12.98;60.19
66176;BME280;52977;44.816;20.538;2023-03-23T02:42:50;99677.88;;;13.18;60.63
66176;BME280;52977;44.816;20.538;2023-03-23T02:45:19;99688.50;;;13.20;60.55
66176;BME280;52977;44.816;20.538;2023-03-23T02:47:49;99623.66;;;12.78;60.78
66176;BME280;52977;44.816;20.538;2023-03-23T02:50:16;99677.44;;;13.16;60.86
66176;BME280;52977;44.816;20.538;2023-03-23T02:52:49;99675.34;;;13.01;61.23
66176;BME280;52977;44.816;20.538;2023-03-23T02:55:18;99678.44;;;13.11;61.16
66176;BME280;52977;44.816;20.538;2023-03-23T02:57:46;99628.41;;;12.90;60.47
66176;BME280;52977;44.816;20.538;2023-03-23T03:00:16;99659.94;;;13.08;60.35
66176;BME280;52977;44.816;20.538;2023-03-23T03:02:46;99686.91;;;13.31;59.97
66176;BME280;52977;44.816;20.538;2023-03-23T03:11:09;99689.09;;;12.92;61.29
66176;BME280;52977;44.816;20.538;2023-03-23T03:13:45;99682.38;;;12.89;61.30
66176;BME280;52977;44.816;20.538;2023-03-23T03:16:30;99690.13;;;12.87;61.19
66176;BME280;52977;44.816;20.538;2023-03-23T03:19:39;99663.28;;;12.80;61.06
66176;BME280;52977;44.816;20.538;2023-03-23T03:22:08;99688.25;;;12.45;62.30
66176;BME280;52977;44.816;20.538;2023-03-23T03:24:40;99649.03;;;12.20;62.62
66176;BME280;52977;44.816;20.538;2023-03-23T03:27:17;99687.88;;;12.68;62.61
66176;BME280;52977;44.816;20.538;2023-03-23T03:29:49;99688.28;;;12.79;62.40
66176;BME280;52977;44.816;20.538;2023-03-23T03:32:23;99675.34;;;12.67;62.20
66176;BME280;52977;44.816;20.538;2023-03-23T03:34:51;99689.41;;;12.78;61.98
66176;BME280;52977;44.816;20.538;2023-03-23T03:37:18;99689.34;;;12.87;61.71
66176;BME280;52977;44.816;20.538;2023-03-23T03:39:48;99693.31;;;12.77;61.69
66176;BME280;52977;44.816;20.538;2023-03-23T03:42:15;99696.63;;;12.82;62.01
66176;BME280;52977;44.816;20.538;2023-03-23T03:44:40;99667.88;;;12.55;62.05
66176;BME280;52977;44.816;20.538;2023-03-23T03:47:06;99696.00;;;12.64;62.43
66176;BME280;52977;44.816;20.538;2023-03-23T03:49:33;99641.22;;;12.31;62.13
66176;BME280;52977;44.816;20.538;2023-03-23T03:51:59;99701.59;;;12.68;62.29
66176;BME280;52977;44.816;20.538;2023-03-23T03:54:35;99664.22;;;12.51;61.99
66176;BME280;52977;44.816;20.538;2023-03-23T03:57:02;99695.06;;;12.60;62.34
66176;BME280;52977;44.816;20.538;2023-03-23T03:59:49;99675.97;;;12.52;62.26
66176;BME280;52977;44.816;20.538;2023-03-23T04:02:43;99690.28;;;12.70;62.01
66176;BME280;52977;44.816;20.538;2023-03-23T04:05:16;99689.16;;;12.71;61.81
66176;BME280;52977;44.816;20.538;2023-03-23T04:07:44;99666.06;;;12.59;61.66
66176;BME280;52977;44.816;20.538;2023-03-23T04:10:11;99700.25;;;12.74;61.69
66176;BME280;52977;44.816;20.538;2023-03-23T04:12:41;99696.34;;;12.75;61.51
66176;BME280;52977;44.816;20.538;2023-03-23T04:15:26;99627.38;;;12.27;61.55
66176;BME280;52977;44.816;20.538;2023-03-23T04:17:52;99685.63;;;12.70;61.52
66176;BME280;52977;44.816;20.538;2023-03-23T04:20:20;99690.28;;;12.70;61.27
66176;BME280;52977;44.816;20.538;2023-03-23T04:22:49;99673.16;;;12.60;61.54
66176;BME280;52977;44.816;20.538;2023-03-23T04:25:17;99682.75;;;12.67;61.56
66176;BME280;52977;44.816;20.538;2023-03-23T04:27:50;99686.63;;;12.65;61.64
66176;BME280;52977;44.816;20.538;2023-03-23T04:30:24;99679.69;;;12.68;61.44
66176;BME280;52977;44.816;20.538;2023-03-23T04:33:23;99691.69;;;12.76;61.27
66176;BME280;52977;44.816;20.538;2023-03-23T04:35:56;99688.53;;;12.86;61.17
66176;BME280;52977;44.816;20.538;2023-03-23T04:38:32;99663.38;;;12.72;61.19
66176;BME280;52977;44.816;20.538;2023-03-23T04:41:07;99691.25;;;12.86;61.27
66176;BME280;52977;44.816;20.538;2023-03-23T04:43:42;99696.63;;;12.82;61.17
66176;BME280;52977;44.816;20.538;2023-03-23T04:46:25;99683.19;;;12.35;62.71
66176;BME280;52977;44.816;20.538;2023-03-23T04:48:58;99692.78;;;12.41;62.89
66176;BME280;52977;44.816;20.538;2023-03-23T04:51:30;99692.13;;;12.23;63.51
66176;BME280;52977;44.816;20.538;2023-03-23T04:54:08;99689.88;;;12.04;64.96
66176;BME280;52977;44.816;20.538;2023-03-23T04:56:36;99671.25;;;11.89;64.22
66176;BME280;52977;44.816;20.538;2023-03-23T04:59:08;99687.66;;;12.19;63.86
66176;BME280;52977;44.816;20.538;2023-03-23T05:01:41;99678.09;;;12.25;62.95
66176;BME280;52977;44.816;20.538;2023-03-23T05:04:19;99686.94;;;12.52;62.21
66176;BME280;52977;44.816;20.538;2023-03-23T05:06:56;99668.91;;;12.51;61.45
66176;BME280;52977;44.816;20.538;2023-03-23T05:09:26;99663.75;;;12.49;61.29
66176;BME280;52977;44.816;20.538;2023-03-23T05:11:53;99691.69;;;12.76;61.27
66176;BME280;52977;44.816;20.538;2023-03-23T05:14:19;99700.38;;;12.78;60.89
66176;BME280;52977;44.816;20.538;2023-03-23T05:16:54;99660.00;;;12.54;61.09
66176;BME280;52977;44.816;20.538;2023-03-23T05:19:22;99689.44;;;12.57;61.56
66176;BME280;52977;44.816;20.538;2023-03-23T05:21:48;99703.16;;;12.36;62.96
66176;BME280;52977;44.816;20.538;2023-03-23T05:24:14;99706.13;;;12.01;63.86
66176;BME280;52977;44.816;20.538;2023-03-23T05:26:40;99707.63;;;11.89;64.80
66176;BME280;52977;44.816;20.538;2023-03-23T05:29:15;99703.59;;;11.87;65.15
66176;BME280;52977;44.816;20.538;2023-03-23T05:31:52;99707.06;;;11.75;65.51
66176;BME280;52977;44.816;20.538;2023-03-23T05:34:19;99705.28;;;11.40;66.75
66176;BME280;52977;44.816;20.538;2023-03-23T05:36:53;99677.00;;;10.89;67.87
66176;BME280;52977;44.816;20.538;2023-03-23T05:39:32;99708.44;;;11.13;67.87
66176;BME280;52977;44.816;20.538;2023-03-23T05:42:12;99719.81;;;11.15;67.83
66176;BME280;52977;44.816;20.538;2023-03-23T05:44:50;99638.47;;;10.73;68.14
66176;BME280;52977;44.816;20.538;2023-03-23T05:47:16;99704.41;;;11.10;68.46
66176;BME280;52977;44.816;20.538;2023-03-23T05:49:49;99706.47;;;11.13;68.05
66176;BME280;52977;44.816;20.538;2023-03-23T05:52:18;99711.00;;;11.18;68.64
66176;BME280;52977;44.816;20.538;2023-03-23T05:54:46;99716.31;;;11.05;68.72
66176;BME280;52977;44.816;20.538;2023-03-23T05:57:12;99709.88;;;11.10;68.87
66176;BME280;52977;44.816;20.538;2023-03-23T05:59:57;99726.38;;;11.31;68.37
66176;BME280;52977;44.816;20.538;2023-03-23T06:02:25;99687.19;;;11.18;68.73
66176;BME280;52977;44.816;20.538;2023-03-23T06:04:55;99687.13;;;11.36;67.60
66176;BME280;52977;44.816;20.538;2023-03-23T06:07:29;99680.94;;;11.18;68.61
66176;BME280;52977;44.816;20.538;2023-03-23T06:10:02;99714.56;;;11.57;68.12
66176;BME280;52977;44.816;20.538;2023-03-23T06:12:38;99714.28;;;11.41;69.02
66176;BME280;52977;44.816;20.538;2023-03-23T06:15:13;99715.44;;;11.31;69.27
66176;BME280;52977;44.816;20.538;2023-03-23T06:18:03;99716.34;;;11.44;68.99
66176;BME280;52977;44.816;20.538;2023-03-23T06:20:37;99694.06;;;11.33;68.23
66176;BME280;52977;44.816;20.538;2023-03-23T06:23:17;99722.13;;;11.51;68.90
66176;BME280;52977;44.816;20.538;2023-03-23T06:25:43;99724.00;;;11.59;68.91
66176;BME280;52977;44.816;20.538;2023-03-23T06:28:10;99728.00;;;11.71;68.77
66176;BME280;52977;44.816;20.538;2023-03-23T06:30:43;99725.22;;;11.79;68.96
66176;BME280;52977;44.816;20.538;2023-03-23T06:33:09;99719.34;;;11.90;68.50
66176;BME280;52977;44.816;20.538;2023-03-23T06:35:55;99646.47;;;11.64;68.42
66176;BME280;52977;44.816;20.538;2023-03-23T06:38:47;99697.88;;;12.30;66.96
66176;BME280;52977;44.816;20.538;2023-03-23T06:41:15;99726.47;;;12.63;66.09
66176;BME280;52977;44.816;20.538;2023-03-23T06:43:41;99713.13;;;12.74;65.48
66176;BME280;52977;44.816;20.538;2023-03-23T06:46:16;99689.63;;;12.73;64.70
66176;BME280;52977;44.816;20.538;2023-03-23T06:48:42;99702.47;;;12.93;64.24
66176;BME280;52977;44.816;20.538;2023-03-23T06:51:12;99731.31;;;13.12;64.40
66176;BME280;52977;44.816;20.538;2023-03-23T06:53:41;99729.25;;;13.21;64.05
66176;BME280;52977;44.816;20.538;2023-03-23T06:56:12;99682.00;;;12.78;65.50
66176;BME280;52977;44.816;20.538;2023-03-23T06:58:40;99701.22;;;12.91;65.55
66176;BME280;52977;44.816;20.538;2023-03-23T07:01:12;99735.66;;;13.25;65.28
66176;BME280;52977;44.816;20.538;2023-03-23T07:03:44;99725.97;;;13.28;64.70
66176;BME280;52977;44.816;20.538;2023-03-23T07:06:11;99737.78;;;13.41;64.47
66176;BME280;52977;44.816;20.538;2023-03-23T07:08:46;99740.31;;;13.46;64.36
66176;BME280;52977;44.816;20.538;2023-03-23T07:11:17;99740.53;;;13.53;63.77
66176;BME280;52977;44.816;20.538;2023-03-23T07:13:43;99717.94;;;13.44;63.76
66176;BME280;52977;44.816;20.538;2023-03-23T07:16:11;99742.03;;;13.63;64.09
66176;BME280;52977;44.816;20.538;2023-03-23T07:18:38;99744.22;;;13.70;63.75
66176;BME280;52977;44.816;20.538;2023-03-23T07:21:05;99731.53;;;13.65;63.77
66176;BME280;52977;44.816;20.538;2023-03-23T07:23:31;99714.75;;;13.66;63.82
66176;BME280;52977;44.816;20.538;2023-03-23T07:26:05;99740.78;;;13.85;63.84
66176;BME280;52977;44.816;20.538;2023-03-23T07:28:39;99674.16;;;13.47;63.53
66176;BME280;52977;44.816;20.538;2023-03-23T07:31:24;99636.34;;;13.28;63.47
66176;BME280;52977;44.816;20.538;2023-03-23T07:33:50;99685.47;;;13.58;63.96
66176;BME280;52977;44.816;20.538;2023-03-23T07:36:16;99712.22;;;13.74;63.64
66176;BME280;52977;44.816;20.538;2023-03-23T07:38:43;99713.72;;;13.71;63.71
66176;BME280;52977;44.816;20.538;2023-03-23T07:41:09;99730.59;;;13.85;63.65
66176;BME280;52977;44.816;20.538;2023-03-23T07:43:36;99699.06;;;13.67;63.63
66176;BME280;52977;44.816;20.538;2023-03-23T07:46:09;99752.34;;;14.03;63.53
66176;BME280;52977;44.816;20.538;2023-03-23T07:48:44;99752.13;;;14.08;63.39
66176;BME280;52977;44.816;20.538;2023-03-23T07:51:10;99748.69;;;14.11;63.59
66176;BME280;52977;44.816;20.538;2023-03-23T07:53:36;99764.44;;;14.14;63.24
66176;BME280;52977;44.816;20.538;2023-03-23T07:56:19;99755.53;;;14.17;62.78
66176;BME280;52977;44.816;20.538;2023-03-23T07:59:07;99766.16;;;14.19;62.48
66176;BME280;52977;44.816;20.538;2023-03-23T08:01:36;99721.16;;;13.83;61.88
66176;BME280;52977;44.816;20.538;2023-03-23T08:04:20;99763.09;;;14.08;61.68
66176;BME280;52977;44.816;20.538;2023-03-23T08:07:05;99739.44;;;13.91;61.44
66176;BME280;52977;44.816;20.538;2023-03-23T08:09:54;99735.44;;;13.89;61.63
66176;BME280;52977;44.816;20.538;2023-03-23T08:12:41;99755.31;;;14.10;61.49
66176;BME280;52977;44.816;20.538;2023-03-23T08:15:26;99757.00;;;14.27;60.87
66176;BME280;52977;44.816;20.538;2023-03-23T08:18:22;99715.19;;;13.81;61.56
66176;BME280;52977;44.816;20.538;2023-03-23T08:20:54;99731.75;;;14.09;62.12
66176;BME280;52977;44.816;20.538;2023-03-23T08:23:50;99740.75;;;14.34;62.14
66176;BME280;52977;44.816;20.538;2023-03-23T08:26:28;99703.41;;;14.05;60.84
66176;BME280;52977;44.816;20.538;2023-03-23T08:29:11;99720.31;;;14.19;61.08
66176;BME280;52977;44.816;20.538;2023-03-23T08:31:58;99773.25;;;14.20;62.51
66176;BME280;52977;44.816;20.538;2023-03-23T08:34:39;99745.16;;;14.11;62.17
66176;BME280;52977;44.816;20.538;2023-03-23T08:37:28;99780.91;;;14.39;62.05
66176;BME280;52977;44.816;20.538;2023-03-23T08:40:14;99782.75;;;14.23;62.31
66176;BME280;52977;44.816;20.538;2023-03-23T08:42:53;99779.53;;;14.33;61.61
66176;BME280;52977;44.816;20.538;2023-03-23T08:45:37;99775.19;;;14.32;61.06
66176;BME280;52977;44.816;20.538;2023-03-23T08:48:04;99750.72;;;14.14;61.36
66176;BME280;52977;44.816;20.538;2023-03-23T08:50:49;99757.69;;;14.24;61.79
66176;BME280;52977;44.816;20.538;2023-03-23T08:53:37;99776.53;;;14.50;61.16
66176;BME280;52977;44.816;20.538;2023-03-23T08:56:25;99785.09;;;14.74;62.16
66176;BME280;52977;44.816;20.538;2023-03-23T08:59:18;99718.06;;;14.50;61.29
66176;BME280;52977;44.816;20.538;2023-03-23T09:02:00;99755.91;;;14.69;61.69
66176;BME280;52977;44.816;20.538;2023-03-23T09:04:41;99751.81;;;14.50;62.38
66176;BME280;52977;44.816;20.538;2023-03-23T09:07:48;99788.50;;;14.70;62.22
66176;BME280;52977;44.816;20.538;2023-03-23T09:10:15;99780.28;;;14.70;62.87
66176;BME280;52977;44.816;20.538;2023-03-23T09:12:42;99725.97;;;14.39;62.37
66176;BME280;52977;44.816;20.538;2023-03-23T09:15:11;99782.41;;;14.90;61.92
66176;BME280;52977;44.816;20.538;2023-03-23T09:17:41;99780.91;;;14.92;61.80
66176;BME280;52977;44.816;20.538;2023-03-23T09:20:10;99770.69;;;14.93;62.10
66176;BME280;52977;44.816;20.538;2023-03-23T09:22:41;99785.66;;;15.08;62.02
66176;BME280;52977;44.816;20.538;2023-03-23T09:25:09;99787.44;;;15.16;61.45
66176;BME280;52977;44.816;20.538;2023-03-23T09:27:37;99795.88;;;15.23;61.10
66176;BME280;52977;44.816;20.538;2023-03-23T09:30:06;99785.06;;;15.30;60.60
66176;BME280;52977;44.816;20.538;2023-03-23T09:32:34;99777.47;;;15.40;61.15
66176;BME280;52977;44.816;20.538;2023-03-23T09:35:05;99775.50;;;15.40;59.99
66176;BME280;52977;44.816;20.538;2023-03-23T09:37:36;99710.53;;;15.03;59.49
66176;BME280;52977;44.816;20.538;2023-03-23T09:40:04;99773.75;;;15.64;60.73
66176;BME280;52977;44.816;20.538;2023-03-23T09:50:12;99764.25;;;15.77;55.81
66176;BME280;52977;44.816;20.538;2023-03-23T09:55:14;99753.97;;;15.90;56.05
66176;BME280;52977;44.816;20.538;2023-03-23T10:00:39;99689.34;;;15.68;54.04
66176;BME280;52977;44.816;20.538;2023-03-23T10:03:26;99695.31;;;15.70;52.96
66176;BME280;52977;44.816;20.538;2023-03-23T10:05:53;99748.28;;;15.99;52.99
66176;BME280;52977;44.816;20.538;2023-03-23T10:08:24;99704.91;;;15.60;52.91
66176;BME280;52977;44.816;20.538;2023-03-23T10:11:27;99729.81;;;15.99;53.00
66176;BME280;52977;44.816;20.538;2023-03-23T10:17:12;99715.19;;;15.95;50.52
66176;BME280;52977;44.816;20.538;2023-03-23T10:19:48;99743.50;;;16.12;52.66
66176;BME280;52977;44.816;20.538;2023-03-23T10:22:23;99746.03;;;16.20;52.92
66176;BME280;52977;44.816;20.538;2023-03-23T10:30:49;99685.44;;;15.85;48.53
66176;BME280;52977;44.816;20.538;2023-03-23T10:36:31;99728.72;;;16.39;51.06
66176;BME280;52977;44.816;20.538;2023-03-23T10:39:16;99722.56;;;16.46;50.55
66176;BME280;52977;44.816;20.538;2023-03-23T10:41:43;99717.50;;;16.68;53.47
66176;BME280;52977;44.816;20.538;2023-03-23T10:44:18;99729.56;;;16.79;51.43
66176;BME280;52977;44.816;20.538;2023-03-23T10:49:28;99699.09;;;16.52;45.30
66176;BME280;52977;44.816;20.538;2023-03-23T10:54:49;99711.50;;;16.62;43.65
66176;BME280;52977;44.816;20.538;2023-03-23T10:57:26;99700.47;;;16.62;44.32
66176;BME280;52977;44.816;20.538;2023-03-23T11:00:07;99659.44;;;16.37;45.28
66176;BME280;52977;44.816;20.538;2023-03-23T11:02:42;99709.09;;;16.80;45.56
66176;BME280;52977;44.816;20.538;2023-03-23T11:05:24;99686.88;;;16.73;46.99
66176;BME280;52977;44.816;20.538;2023-03-23T11:07:53;99695.81;;;16.86;48.23
66176;BME280;52977;44.816;20.538;2023-03-23T11:10:34;99700.63;;;16.89;46.29
66176;BME280;52977;44.816;20.538;2023-03-23T11:13:00;99698.50;;;16.82;46.35
66176;BME280;52977;44.816;20.538;2023-03-23T11:15:32;99710.91;;;16.92;46.55
66176;BME280;52977;44.816;20.538;2023-03-23T11:20:27;99641.09;;;16.65;47.04
66176;BME280;52977;44.816;20.538;2023-03-23T11:22:55;99626.13;;;16.66;46.24
66176;BME280;52977;44.816;20.538;2023-03-23T11:25:22;99688.19;;;16.99;47.00
66176;BME280;52977;44.816;20.538;2023-03-23T11:27:49;99670.63;;;17.07;46.17
66176;BME280;52977;44.816;20.538;2023-03-23T11:30:24;99687.22;;;17.34;47.05
66176;BME280;52977;44.816;20.538;2023-03-23T11:32:54;99684.78;;;17.29;46.43
66176;BME280;52977;44.816;20.538;2023-03-23T11:35:25;99686.50;;;17.37;46.86
66176;BME280;52977;44.816;20.538;2023-03-23T11:37:54;99679.53;;;17.43;46.37
66176;BME280;52977;44.816;20.538;2023-03-23T11:40:27;99673.66;;;17.48;46.93
66176;BME280;52977;44.816;20.538;2023-03-23T11:43:08;99643.53;;;17.36;46.27
66176;BME280;52977;44.816;20.538;2023-03-23T11:45:40;99671.19;;;17.66;45.44
66176;BME280;52977;44.816;20.538;2023-03-23T11:51:02;99645.25;;;17.71;46.41
66176;BME280;52977;44.816;20.538;2023-03-23T11:53:49;99629.56;;;17.79;45.92
66176;BME280;52977;44.816;20.538;2023-03-23T11:56:23;99623.75;;;17.84;46.47
66176;BME280;52977;44.816;20.538;2023-03-23T11:58:53;99659.25;;;18.12;46.25
66176;BME280;52977;44.816;20.538;2023-03-23T12:09:23;99636.53;;;18.26;45.03
66176;BME280;52977;44.816;20.538;2023-03-23T12:15:19;99637.31;;;18.26;45.30
66176;BME280;52977;44.816;20.538;2023-03-23T12:18:06;99590.97;;;18.09;45.28
66176;BME280;52977;44.816;20.538;2023-03-23T12:24:28;99634.66;;;18.68;45.65
66176;BME280;52977;44.816;20.538;2023-03-23T12:26:52;99623.66;;;18.75;45.11
66176;BME280;52977;44.816;20.538;2023-03-23T12:37:29;99614.13;;;19.10;42.98
66176;BME280;52977;44.816;20.538;2023-03-23T12:48:23;99599.75;;;19.42;42.84
66176;BME280;52977;44.816;20.538;2023-03-23T12:51:30;99606.84;;;19.39;42.65
66176;BME280;52977;44.816;20.538;2023-03-23T12:56:35;99590.94;;;19.25;41.76
66176;BME280;52977;44.816;20.538;2023-03-23T13:02:05;99583.16;;;19.38;42.19
66176;BME280;52977;44.816;20.538;2023-03-23T13:04:37;99573.66;;;19.39;41.81
66176;BME280;52977;44.816;20.538;2023-03-23T13:07:08;99571.56;;;19.22;41.91
66176;BME280;52977;44.816;20.538;2023-03-23T13:12:16;99542.34;;;19.28;42.01
66176;BME280;52977;44.816;20.538;2023-03-23T13:14:57;99574.53;;;19.54;40.86
66176;BME280;52977;44.816;20.538;2023-03-23T13:25:56;99564.09;;;19.29;42.44
66176;BME280;52977;44.816;20.538;2023-03-23T13:28:28;99482.13;;;18.58;41.92
66176;BME280;52977;44.816;20.538;2023-03-23T13:31:00;99502.44;;;18.77;42.09
66176;BME280;52977;44.816;20.538;2023-03-23T13:33:32;99542.69;;;19.19;41.98
66176;BME280;52977;44.816;20.538;2023-03-23T13:36:13;99540.69;;;19.20;40.89
66176;BME280;52977;44.816;20.538;2023-03-23T13:38:48;99491.91;;;18.90;41.39
66176;BME280;52977;44.816;20.538;2023-03-23T13:41:17;99533.91;;;19.10;41.21
66176;BME280;52977;44.816;20.538;2023-03-23T13:43:46;99535.56;;;19.18;40.68
66176;BME280;52977;44.816;20.538;2023-03-23T13:46:24;99473.97;;;18.76;41.37
66176;BME280;52977;44.816;20.538;2023-03-23T13:59:17;99519.94;;;19.51;41.49
66176;BME280;52977;44.816;20.538;2023-03-23T14:01:54;99522.41;;;19.67;40.76
66176;BME280;52977;44.816;20.538;2023-03-23T14:04:21;99509.38;;;19.68;41.42
66176;BME280;52977;44.816;20.538;2023-03-23T14:06:49;99505.09;;;19.81;40.90
66176;BME280;52977;44.816;20.538;2023-03-23T14:11:59;99505.53;;;19.97;40.38
66176;BME280;52977;44.816;20.538;2023-03-23T14:14:33;99475.31;;;19.63;41.04
66176;BME280;52977;44.816;20.538;2023-03-23T14:17:07;99498.28;;;19.68;39.80
66176;BME280;52977;44.816;20.538;2023-03-23T14:19:38;99493.03;;;19.44;40.10
66176;BME280;52977;44.816;20.538;2023-03-23T14:22:04;99477.56;;;19.36;40.59
66176;BME280;52977;44.816;20.538;2023-03-23T14:24:42;99507.28;;;19.50;40.30
66176;BME280;52977;44.816;20.538;2023-03-23T14:27:17;99489.03;;;19.35;40.88
66176;BME280;52977;44.816;20.538;2023-03-23T14:29:43;99496.59;;;19.49;40.50
66176;BME280;52977;44.816;20.538;2023-03-23T14:32:15;99499.41;;;19.52;40.32
66176;BME280;52977;44.816;20.538;2023-03-23T14:34:42;99442.63;;;19.06;40.50
66176;BME280;52977;44.816;20.538;2023-03-23T14:37:13;99491.44;;;19.40;40.75
66176;BME280;52977;44.816;20.538;2023-03-23T14:39:44;99460.34;;;18.98;40.67
66176;BME280;52977;44.816;20.538;2023-03-23T14:42:12;99493.25;;;19.14;41.23
66176;BME280;52977;44.816;20.538;2023-03-23T14:44:42;99480.97;;;19.11;40.64
66176;BME280;52977;44.816;20.538;2023-03-23T14:47:35;99498.88;;;19.28;40.77
66176;BME280;52977;44.816;20.538;2023-03-23T14:50:06;99490.19;;;19.34;41.42
66176;BME280;52977;44.816;20.538;2023-03-23T14:52:36;99493.75;;;19.30;41.29
66176;BME280;52977;44.816;20.538;2023-03-23T14:55:17;99493.34;;;19.28;40.80
66176;BME280;52977;44.816;20.538;2023-03-23T14:57:44;99497.69;;;19.26;41.00
66176;BME280;52977;44.816;20.538;2023-03-23T15:00:14;99488.25;;;19.34;41.90
66176;BME280;52977;44.816;20.538;2023-03-23T15:02:41;99454.44;;;19.00;41.11
66176;BME280;52977;44.816;20.538;2023-03-23T15:05:13;99493.97;;;19.04;41.03
66176;BME280;52977;44.816;20.538;2023-03-23T15:07:43;99452.25;;;18.75;41.25
66176;BME280;52977;44.816;20.538;2023-03-23T15:10:17;99508.56;;;19.01;40.88
66176;BME280;52977;44.816;20.538;2023-03-23T15:12:45;99503.34;;;18.88;41.59
66176;BME280;52977;44.816;20.538;2023-03-23T15:17:51;99480.28;;;18.73;42.03
66176;BME280;52977;44.816;20.538;2023-03-23T15:22:51;99505.59;;;18.79;41.76